createdAt,value
2017-11-13T09:43:35.040Z,335
2017-11-13T09:43:48.009Z,335
2017-11-13T09:44:00.989Z,335
2017-11-13T09:44:13.893Z,345
2017-11-13T09:44:27.369Z,350
2017-11-13T09:44:40.338Z,360
2017-11-13T09:44:53.834Z,365
2017-11-13T09:45:06.797Z,370
2017-11-13T09:45:19.728Z,375
2017-11-13T09:45:33.236Z,385
2017-11-13T09:45:46.786Z,390
2017-11-13T09:46:00.278Z,415
2017-11-13T09:46:13.176Z,430
2017-11-13T09:46:26.671Z,450
2017-11-13T09:46:40.200Z,485
2017-11-13T09:46:53.650Z,575
2017-11-13T09:47:07.095Z,920
2017-11-13T09:47:20.519Z,885
2017-11-13T09:47:33.427Z,490
2017-11-13T09:47:46.909Z,470
2017-11-13T09:48:00.397Z,475
2017-11-13T09:48:13.339Z,485
2017-11-13T09:48:26.265Z,560
2017-11-13T09:48:39.709Z,435
2017-11-13T09:48:53.201Z,430
2017-11-13T09:49:05.573Z,435
2017-11-13T09:49:18.999Z,445
2017-11-13T09:49:32.440Z,535
2017-11-13T09:49:45.405Z,1255
2017-11-13T09:49:58.915Z,1515
2017-11-13T09:50:11.901Z,1560
2017-11-13T09:50:25.384Z,1565
2017-11-13T09:50:37.719Z,1150
2017-11-13T09:50:50.672Z,490
2017-11-13T09:51:03.083Z,580
2017-11-13T09:51:14.892Z,925
2017-11-13T09:51:27.270Z,735
2017-11-13T09:51:40.861Z,1205
2017-11-13T09:51:54.338Z,895
2017-11-13T09:52:07.822Z,590
2017-11-13T09:52:21.322Z,685
2017-11-13T09:52:34.777Z,405
2017-11-13T09:52:48.229Z,435
2017-11-13T09:53:01.651Z,430
2017-11-13T09:53:15.123Z,425
2017-11-13T09:53:27.546Z,410
2017-11-13T09:53:41.062Z,395
2017-11-13T09:53:54.498Z,395
2017-11-13T09:54:06.942Z,400
2017-11-13T09:54:19.865Z,415
2017-11-13T09:54:33.345Z,435
2017-11-13T09:54:46.277Z,475
2017-11-13T09:54:59.219Z,885
2017-11-13T09:55:12.135Z,1065
2017-11-13T09:55:25.545Z,530
2017-11-13T09:55:38.518Z,470
2017-11-13T09:55:51.500Z,575
2017-11-13T09:56:04.408Z,585
2017-11-13T09:56:17.330Z,430
2017-11-13T09:56:30.785Z,410
2017-11-13T09:56:43.683Z,405
2017-11-13T09:56:57.170Z,405
2017-11-13T09:57:10.097Z,425
2017-11-13T09:57:23.583Z,490
2017-11-13T09:57:37.083Z,870
2017-11-13T09:57:50.526Z,775
2017-11-13T09:58:04.560Z,1250
2017-11-13T09:58:17.509Z,1560
2017-11-13T09:58:30.512Z,1565
2017-11-13T09:58:43.467Z,1545
2017-11-13T09:58:56.973Z,1520
2017-11-13T09:59:10.466Z,1135
2017-11-13T09:59:23.937Z,1475
2017-11-13T09:59:36.322Z,1540
2017-11-13T09:59:49.252Z,1560
2017-11-13T10:00:02.787Z,1545
2017-11-13T10:00:16.340Z,1540
2017-11-13T10:00:29.293Z,1550
2017-11-13T10:00:42.733Z,1565
2017-11-13T10:00:55.630Z,1560
2017-11-13T10:01:09.190Z,1565
2017-11-13T10:01:22.163Z,1580
2017-11-13T10:01:35.040Z,485
2017-11-13T10:01:48.540Z,430
2017-11-13T10:02:02.077Z,435
2017-11-13T10:02:15.197Z,415
2017-11-13T10:02:28.698Z,475
2017-11-13T10:02:42.103Z,470
2017-11-13T10:02:55.521Z,435
2017-11-13T10:03:09.007Z,735
2017-11-13T10:03:21.329Z,540
2017-11-13T10:03:34.768Z,510
2017-11-13T10:03:48.256Z,515
2017-11-13T10:04:01.194Z,690
2017-11-13T10:04:14.029Z,1070
2017-11-13T10:04:27.546Z,1265
2017-11-13T10:04:40.988Z,1590
2017-11-13T10:04:54.502Z,1155
2017-11-13T10:05:08.039Z,1690
2017-11-13T10:05:21.532Z,1650
2017-11-13T10:05:33.984Z,760
2017-11-13T10:05:46.857Z,1010
2017-11-13T10:06:00.296Z,1535
2017-11-13T10:06:13.764Z,1670
2017-11-13T10:06:26.681Z,1700
2017-11-13T10:06:40.144Z,1695
2017-11-13T10:06:53.091Z,1695
2017-11-13T10:07:06.520Z,1700
2017-11-13T10:07:19.990Z,1680
2017-11-13T10:07:32.928Z,1700
2017-11-13T10:07:45.950Z,1705
2017-11-13T10:07:58.325Z,1705
2017-11-13T10:08:11.759Z,980
2017-11-13T10:08:24.680Z,665
2017-11-13T10:08:38.125Z,450
2017-11-13T10:08:51.050Z,485
2017-11-13T10:09:04.982Z,500
2017-11-13T10:09:17.897Z,580
2017-11-13T10:09:30.810Z,515
2017-11-13T10:09:43.808Z,560
2017-11-13T10:09:57.228Z,520
2017-11-13T10:10:10.689Z,520
2017-11-13T10:10:23.630Z,930
2017-11-13T10:10:37.109Z,615
2017-11-13T10:10:50.615Z,505
2017-11-13T10:11:03.580Z,490
2017-11-13T10:11:15.947Z,500
2017-11-13T10:11:28.397Z,545
2017-11-13T10:11:41.348Z,830
2017-11-13T10:11:53.722Z,1550
2017-11-13T10:12:07.173Z,1505
2017-11-13T10:12:20.098Z,770
2017-11-13T10:12:33.578Z,810
2017-11-13T10:12:46.522Z,1435
2017-11-13T10:13:00.127Z,1115
2017-11-13T10:13:13.086Z,1525
2017-11-13T10:13:26.571Z,875
2017-11-13T10:13:40.138Z,740
2017-11-13T10:13:53.567Z,595
2017-11-13T10:14:07.012Z,615
2017-11-13T10:14:19.390Z,615
2017-11-13T10:14:31.812Z,1075
2017-11-13T10:14:44.716Z,1035
2017-11-13T10:14:56.521Z,1545
2017-11-13T10:15:09.448Z,865
2017-11-13T10:15:21.856Z,815
2017-11-13T10:15:34.799Z,1095
2017-11-13T10:15:47.693Z,855
2017-11-13T10:16:00.618Z,1290
2017-11-13T10:16:14.099Z,1540
2017-11-13T10:16:27.630Z,1125
2017-11-13T10:16:41.102Z,1235
2017-11-13T10:16:54.023Z,1635
2017-11-13T10:17:07.538Z,1700
2017-11-13T10:17:20.469Z,1535
2017-11-13T10:17:33.933Z,1695
2017-11-13T10:17:47.431Z,1695
2017-11-13T10:17:59.280Z,1685
2017-11-13T10:18:12.282Z,1580
2017-11-13T10:18:25.767Z,660
2017-11-13T10:18:38.747Z,775
2017-11-13T10:18:52.389Z,1025
2017-11-13T10:19:04.821Z,1125
2017-11-13T10:19:18.304Z,570
2017-11-13T10:19:31.238Z,560
2017-11-13T10:19:44.141Z,700
2017-11-13T10:19:57.594Z,620
2017-11-13T10:20:10.503Z,1055
2017-11-13T10:20:23.935Z,1410
2017-11-13T10:20:36.839Z,1615
2017-11-13T10:20:49.762Z,1620
2017-11-13T10:21:03.232Z,1630
2017-11-13T10:21:16.127Z,1640
2017-11-13T10:21:29.091Z,1635
2017-11-13T10:21:42.557Z,1645
2017-11-13T10:21:54.889Z,1655
2017-11-13T10:22:08.403Z,1655
2017-11-13T10:22:20.796Z,1655
2017-11-13T10:22:33.731Z,1655
2017-11-13T10:22:47.189Z,1650
2017-11-13T10:23:00.128Z,1640
2017-11-13T10:23:13.038Z,1645
2017-11-13T10:23:26.567Z,1635
2017-11-13T10:23:40.037Z,1590
2017-11-13T10:23:52.992Z,1615
2017-11-13T10:24:05.896Z,1595
2017-11-13T10:24:19.408Z,1565
2017-11-13T10:24:32.845Z,1585
2017-11-13T10:24:46.301Z,1600
2017-11-13T10:24:59.715Z,1620
2017-11-13T10:25:12.691Z,1145
2017-11-13T10:25:26.106Z,1100
2017-11-13T10:25:39.046Z,885
2017-11-13T10:25:52.505Z,1215
2017-11-13T10:26:05.400Z,1325
2017-11-13T10:26:18.286Z,1485
2017-11-13T10:26:31.766Z,1550
2017-11-13T10:26:45.265Z,1580
2017-11-13T10:26:58.211Z,1570
2017-11-13T10:27:11.716Z,1620
2017-11-13T10:27:25.256Z,1640
2017-11-13T10:27:38.761Z,1645
2017-11-13T10:27:52.199Z,1590
2017-11-13T10:28:05.320Z,1570
2017-11-13T10:28:18.842Z,1580
2017-11-13T10:28:31.775Z,1165
2017-11-13T10:28:44.686Z,1490
2017-11-13T10:28:58.193Z,1260
2017-11-13T10:29:11.101Z,1430
2017-11-13T10:29:24.544Z,1150
2017-11-13T10:29:38.040Z,875
2017-11-13T10:29:50.382Z,1015
2017-11-13T10:30:03.825Z,1540
2017-11-13T10:30:17.277Z,1465
2017-11-13T10:30:30.203Z,1430
2017-11-13T10:30:43.120Z,1455
2017-11-13T10:30:56.125Z,925
2017-11-13T10:31:09.668Z,665
2017-11-13T10:31:23.168Z,830
2017-11-13T10:31:36.648Z,715
2017-11-13T10:31:49.568Z,1295
2017-11-13T10:32:03.056Z,1485
2017-11-13T10:32:16.560Z,1510
2017-11-13T10:32:29.464Z,1530
2017-11-13T10:32:42.956Z,1485
2017-11-13T10:32:56.391Z,1475
2017-11-13T10:33:09.331Z,1480
2017-11-13T10:33:22.741Z,1500
2017-11-13T10:33:36.229Z,1030
2017-11-13T10:33:49.661Z,1475
2017-11-13T10:34:02.599Z,1340
2017-11-13T10:34:15.497Z,1545
2017-11-13T10:34:28.956Z,1580
2017-11-13T10:34:42.425Z,1600
2017-11-13T10:34:55.848Z,1615
2017-11-13T10:35:08.786Z,1610
2017-11-13T10:35:22.289Z,1620
2017-11-13T10:35:35.759Z,1605
2017-11-13T10:35:48.667Z,1585
2017-11-13T10:36:02.131Z,1575
2017-11-13T10:36:15.552Z,1560
2017-11-13T10:36:27.949Z,1565
2017-11-13T10:36:40.937Z,1575
2017-11-13T10:36:54.448Z,1575
2017-11-13T10:37:07.940Z,1570
2017-11-13T10:37:20.913Z,1550
2017-11-13T10:37:34.371Z,1520
2017-11-13T10:37:47.303Z,1505
2017-11-13T10:38:00.779Z,1520
2017-11-13T10:38:14.265Z,1525
2017-11-13T10:38:27.722Z,1545
2017-11-13T10:38:41.138Z,1575
2017-11-13T10:38:54.049Z,1605
2017-11-13T10:39:07.546Z,1590
2017-11-13T10:39:20.982Z,1605
2017-11-13T10:39:33.952Z,1610
2017-11-13T10:39:47.441Z,1585
2017-11-13T10:40:00.387Z,1575
2017-11-13T10:40:13.885Z,1570
2017-11-13T10:40:26.796Z,1575
2017-11-13T10:40:40.281Z,1585
2017-11-13T10:40:53.748Z,1585
2017-11-13T10:41:06.680Z,1590
2017-11-13T10:41:19.607Z,1590
2017-11-13T10:41:33.084Z,1595
2017-11-13T10:41:46.598Z,1555
2017-11-13T10:41:59.551Z,1515
2017-11-13T10:42:11.928Z,1505
2017-11-13T10:42:25.463Z,1400
2017-11-13T10:42:38.895Z,1475
2017-11-13T10:42:52.362Z,1500
2017-11-13T10:43:06.092Z,1535
2017-11-13T10:43:19.536Z,1565
2017-11-13T10:43:32.459Z,1565
2017-11-13T10:43:44.865Z,1570
2017-11-13T10:43:57.793Z,1565
2017-11-13T10:44:10.693Z,1580
2017-11-13T10:44:23.633Z,1585
2017-11-13T10:44:35.967Z,1590
2017-11-13T10:44:48.889Z,1580
2017-11-13T10:45:02.420Z,1585
2017-11-13T10:45:15.946Z,1585
2017-11-13T10:45:29.437Z,1575
2017-11-13T10:45:42.932Z,1565
2017-11-13T10:45:56.437Z,1555
2017-11-13T10:46:09.919Z,1555
2017-11-13T10:46:22.852Z,1550
2017-11-13T10:46:36.318Z,1545
2017-11-13T10:46:48.179Z,1525
2017-11-13T10:47:01.695Z,1510
2017-11-13T10:47:15.167Z,1510
2017-11-13T10:47:28.024Z,1500
2017-11-13T10:47:41.477Z,1500
2017-11-13T10:47:54.959Z,1495
2017-11-13T10:48:07.991Z,1485
2017-11-13T10:48:21.491Z,1490
2017-11-13T10:48:34.387Z,1500
2017-11-13T10:48:47.811Z,1500
2017-11-13T10:49:01.222Z,1515
2017-11-13T10:49:14.690Z,1520
2017-11-13T10:49:28.095Z,1535
2017-11-13T10:49:41.580Z,1520
2017-11-13T10:49:53.972Z,1525
2017-11-13T10:50:06.843Z,1525
2017-11-13T10:50:20.364Z,1520
2017-11-13T10:50:33.292Z,1520
2017-11-13T10:50:46.212Z,1500
2017-11-13T10:50:59.719Z,1455
2017-11-13T10:51:13.190Z,1425
2017-11-13T10:51:26.625Z,1440
2017-11-13T10:51:40.125Z,1435
2017-11-13T10:51:52.510Z,1420
2017-11-13T10:52:05.976Z,1415
2017-11-13T10:52:18.381Z,1445
2017-11-13T10:52:32.057Z,1485
2017-11-13T10:52:45.510Z,1505
2017-11-13T10:52:58.945Z,1535
2017-11-13T10:53:12.377Z,1555
2017-11-13T10:53:25.822Z,1550
2017-11-13T10:53:38.222Z,1555
2017-11-13T10:53:51.159Z,1545
2017-11-13T10:54:04.658Z,1540
2017-11-13T10:54:18.134Z,1545
2017-11-13T10:54:31.611Z,1545
2017-11-13T10:54:44.537Z,1540
2017-11-13T10:54:57.467Z,1540
2017-11-13T10:55:10.923Z,1550
2017-11-13T10:55:24.360Z,1545
2017-11-13T10:55:38.030Z,1530
2017-11-13T10:55:50.922Z,1535
2017-11-13T10:56:03.825Z,1535
2017-11-13T10:56:15.682Z,1540
2017-11-13T10:56:29.173Z,1545
2017-11-13T10:56:42.662Z,1550
2017-11-13T10:56:56.179Z,1560
2017-11-13T10:57:09.643Z,1555
2017-11-13T10:57:23.112Z,1555
2017-11-13T10:57:36.056Z,1560
2017-11-13T10:57:49.743Z,1560
2017-11-13T10:58:03.238Z,1560
2017-11-13T10:58:16.882Z,1555
2017-11-13T10:58:29.765Z,1565
2017-11-13T10:58:43.311Z,1555
2017-11-13T10:58:55.747Z,1550
2017-11-13T10:59:09.223Z,1560
2017-11-13T10:59:22.666Z,1570
2017-11-13T10:59:35.120Z,1560
2017-11-13T10:59:48.550Z,1565
2017-11-13T11:00:01.986Z,1535
2017-11-13T11:00:15.499Z,1515
2017-11-13T11:00:29.000Z,1540
2017-11-13T11:00:42.418Z,1550
2017-11-13T11:00:55.355Z,1530
2017-11-13T11:01:08.295Z,1500
2017-11-13T11:01:21.813Z,1480
2017-11-13T11:01:35.251Z,1470
2017-11-13T11:01:48.174Z,1465
2017-11-13T11:02:01.640Z,1425
2017-11-13T11:02:15.046Z,1425
2017-11-13T11:02:29.131Z,1435
2017-11-13T11:02:42.620Z,1470
2017-11-13T11:02:56.158Z,1470
2017-11-13T11:03:09.064Z,1475
2017-11-13T11:03:22.005Z,1490
2017-11-13T11:03:34.966Z,1500
2017-11-13T11:03:48.430Z,1485
2017-11-13T11:04:01.884Z,1490
2017-11-13T11:04:14.779Z,1470
2017-11-13T11:04:28.192Z,1450
2017-11-13T11:04:41.155Z,1445
2017-11-13T11:04:54.095Z,1445
2017-11-13T11:05:07.608Z,1455
2017-11-13T11:05:20.522Z,1430
2017-11-13T11:05:33.483Z,1380
2017-11-13T11:05:47.002Z,1365
2017-11-13T11:05:59.951Z,1380
2017-11-13T11:06:13.405Z,1365
2017-11-13T11:06:26.891Z,1355
2017-11-13T11:06:40.325Z,1375
2017-11-13T11:06:55.161Z,1385
2017-11-13T11:07:08.577Z,1380
2017-11-13T11:07:22.044Z,1380
2017-11-13T11:07:35.467Z,1375
2017-11-13T11:07:48.402Z,1365
2017-11-13T11:08:00.188Z,1355
2017-11-13T11:08:13.091Z,1355
2017-11-13T11:08:26.511Z,1355
2017-11-13T11:08:39.968Z,1350
2017-11-13T11:08:53.469Z,1355
2017-11-13T11:09:06.456Z,1365
2017-11-13T11:09:19.890Z,1360
2017-11-13T11:09:33.353Z,1360
2017-11-13T11:09:46.793Z,1375
2017-11-13T11:10:00.246Z,1360
2017-11-13T11:10:13.197Z,1365
2017-11-13T11:10:26.654Z,1380
2017-11-13T11:10:39.626Z,1370
2017-11-13T11:10:53.065Z,1385
2017-11-13T11:11:05.935Z,1385
2017-11-13T11:11:19.420Z,1400
2017-11-13T11:11:32.319Z,1415
2017-11-13T11:11:45.882Z,1425
2017-11-13T11:11:59.362Z,1450
2017-11-13T11:12:12.315Z,1460
2017-11-13T11:12:25.217Z,1480
2017-11-13T11:12:38.112Z,1475
2017-11-13T11:12:51.052Z,1475
2017-11-13T11:13:04.022Z,1465
2017-11-13T11:13:17.041Z,1455
2017-11-13T11:13:30.006Z,1445
2017-11-13T11:13:42.935Z,1435
2017-11-13T11:13:56.435Z,1425
2017-11-13T11:14:09.863Z,1430
2017-11-13T11:14:23.351Z,1420
2017-11-13T11:14:36.841Z,1415
2017-11-13T11:14:50.291Z,1405
2017-11-13T11:15:03.196Z,1405
2017-11-13T11:15:16.150Z,1405
2017-11-13T11:15:28.534Z,1405
2017-11-13T11:15:42.016Z,1415
2017-11-13T11:15:54.902Z,1420
2017-11-13T11:16:07.805Z,1435
2017-11-13T11:16:21.264Z,1445
2017-11-13T11:16:34.782Z,1440
2017-11-13T11:16:47.739Z,1455
2017-11-13T11:17:01.286Z,1460
2017-11-13T11:17:13.677Z,1445
2017-11-13T11:17:26.075Z,1440
2017-11-13T11:17:39.510Z,1425
2017-11-13T11:17:52.988Z,1430
2017-11-13T11:18:06.445Z,1415
2017-11-13T11:18:19.942Z,1410
2017-11-13T11:18:33.442Z,1365
2017-11-13T11:18:46.876Z,1395
2017-11-13T11:18:59.889Z,1385
2017-11-13T11:19:13.369Z,1400
2017-11-13T11:19:26.310Z,1400
2017-11-13T11:19:39.264Z,1400
2017-11-13T11:19:52.688Z,1410
2017-11-13T11:20:06.158Z,1430
2017-11-13T11:20:19.681Z,1445
2017-11-13T11:20:32.587Z,1425
2017-11-13T11:20:45.549Z,1420
2017-11-13T11:20:58.480Z,1430
2017-11-13T11:21:11.390Z,1420
2017-11-13T11:21:24.258Z,1410
2017-11-13T11:21:37.227Z,1395
2017-11-13T11:21:50.701Z,1390
2017-11-13T11:22:04.133Z,1370
2017-11-13T11:22:17.611Z,1365
2017-11-13T11:22:30.558Z,1350
2017-11-13T11:22:43.985Z,1340
2017-11-13T11:22:57.481Z,1330
2017-11-13T11:23:10.945Z,1335
2017-11-13T11:23:24.601Z,1330
2017-11-13T11:23:38.079Z,1335
2017-11-13T11:23:50.445Z,1330
2017-11-13T11:24:03.877Z,1330
2017-11-13T11:24:16.774Z,1350
2017-11-13T11:24:29.677Z,1365
2017-11-13T11:24:43.132Z,1365
2017-11-13T11:24:56.683Z,1370
2017-11-13T11:25:09.080Z,1370
2017-11-13T11:25:22.520Z,1390
2017-11-13T11:25:35.452Z,1385
2017-11-13T11:25:48.396Z,1390
2017-11-13T11:26:01.833Z,1390
2017-11-13T11:26:15.238Z,1390
2017-11-13T11:26:28.123Z,1390
2017-11-13T11:26:40.499Z,1395
2017-11-13T11:26:53.989Z,1405
2017-11-13T11:27:06.363Z,1400
2017-11-13T11:27:19.828Z,1380
2017-11-13T11:27:33.296Z,1370
2017-11-13T11:27:46.816Z,1360
2017-11-13T11:28:00.275Z,1350
2017-11-13T11:28:13.758Z,1350
2017-11-13T11:28:27.476Z,1340
2017-11-13T11:28:39.807Z,1345
2017-11-13T11:28:52.159Z,1320
2017-11-13T11:29:05.102Z,1310
2017-11-13T11:29:18.558Z,1290
2017-11-13T11:29:32.001Z,1285
2017-11-13T11:29:45.478Z,1295
2017-11-13T11:29:58.910Z,1305
2017-11-13T11:30:11.820Z,1295
2017-11-13T11:30:24.736Z,1290
2017-11-13T11:30:37.690Z,1275
2017-11-13T11:30:51.232Z,1270
2017-11-13T11:31:04.123Z,1280
2017-11-13T11:31:17.597Z,1275
2017-11-13T11:31:31.007Z,1260
2017-11-13T11:31:43.927Z,1255
2017-11-13T11:31:56.848Z,1250
2017-11-13T11:32:10.321Z,1245
2017-11-13T11:32:23.232Z,1240
2017-11-13T11:32:36.717Z,1255
2017-11-13T11:32:50.209Z,1250
2017-11-13T11:33:03.669Z,1260
2017-11-13T11:33:17.149Z,1265
2017-11-13T11:33:30.550Z,1255
2017-11-13T11:33:43.462Z,1255
2017-11-13T11:33:56.989Z,1240
2017-11-13T11:34:10.452Z,1240
2017-11-13T11:34:23.921Z,1225
2017-11-13T11:34:37.372Z,1230
2017-11-13T11:34:50.889Z,1240
2017-11-13T11:35:03.844Z,1230
2017-11-13T11:35:17.347Z,1215
2017-11-13T11:35:30.263Z,1200
2017-11-13T11:35:43.711Z,1200
2017-11-13T11:35:57.160Z,1195
2017-11-13T11:36:10.122Z,1190
2017-11-13T11:36:23.007Z,1195
2017-11-13T11:36:36.469Z,1200
2017-11-13T11:36:49.938Z,1210
2017-11-13T11:37:02.825Z,1205
2017-11-13T11:37:15.761Z,1215
2017-11-13T11:37:28.654Z,1235
2017-11-13T11:37:42.164Z,1240
2017-11-13T11:37:55.581Z,1255
2017-11-13T11:38:08.507Z,1270
2017-11-13T11:38:21.968Z,1280
2017-11-13T11:38:35.410Z,1285
2017-11-13T11:38:48.339Z,1275
2017-11-13T11:39:01.833Z,1280
2017-11-13T11:39:15.266Z,1255
2017-11-13T11:39:28.207Z,1260
2017-11-13T11:39:41.673Z,1265
2017-11-13T11:39:54.565Z,1270
2017-11-13T11:40:07.488Z,1265
2017-11-13T11:40:20.394Z,1255
2017-11-13T11:40:33.856Z,1255
2017-11-13T11:40:46.266Z,1235
2017-11-13T11:40:59.707Z,1240
2017-11-13T11:41:13.208Z,1215
2017-11-13T11:41:26.653Z,1215
2017-11-13T11:41:40.165Z,1220
2017-11-13T11:41:53.612Z,1220
2017-11-13T11:42:06.018Z,1210
2017-11-13T11:42:18.933Z,1210
2017-11-13T11:42:32.365Z,1205
2017-11-13T11:42:45.823Z,1200
2017-11-13T11:42:58.745Z,1185
2017-11-13T11:43:11.662Z,1190
2017-11-13T11:43:25.094Z,1190
2017-11-13T11:43:38.122Z,1195
2017-11-13T11:43:51.636Z,1195
2017-11-13T11:44:05.119Z,1205
2017-11-13T11:44:18.036Z,1215
2017-11-13T11:44:31.574Z,1225
2017-11-13T11:44:45.098Z,1225
2017-11-13T11:44:58.519Z,1230
2017-11-13T11:45:11.985Z,1220
2017-11-13T11:45:24.936Z,1220
2017-11-13T11:45:37.957Z,1215
2017-11-13T11:45:50.361Z,1210
2017-11-13T11:46:02.195Z,1210
2017-11-13T11:46:15.097Z,1200
2017-11-13T11:46:28.006Z,1190
2017-11-13T11:46:41.441Z,1185
2017-11-13T11:46:54.940Z,1180
2017-11-13T11:47:08.402Z,1180
2017-11-13T11:47:21.313Z,1165
2017-11-13T11:47:34.858Z,1165
2017-11-13T11:47:48.364Z,1165
2017-11-13T11:48:01.244Z,1175
2017-11-13T11:48:14.262Z,1180
2017-11-13T11:48:27.715Z,1170
2017-11-13T11:48:41.244Z,1165
2017-11-13T11:48:54.743Z,1175
2017-11-13T11:49:08.178Z,1170
2017-11-13T11:49:21.652Z,1175
2017-11-13T11:49:34.520Z,1180
2017-11-13T11:49:47.374Z,1185
2017-11-13T11:50:00.826Z,1180
2017-11-13T11:50:14.270Z,1190
2017-11-13T11:50:27.758Z,1195
2017-11-13T11:50:40.699Z,1190
2017-11-13T11:50:53.656Z,1185
2017-11-13T11:51:06.041Z,1185
2017-11-13T11:51:18.989Z,1175
2017-11-13T11:51:31.924Z,1170
2017-11-13T11:51:45.420Z,1170
2017-11-13T11:51:58.369Z,1160
2017-11-13T11:52:11.795Z,1160
2017-11-13T11:52:25.356Z,1155
2017-11-13T11:52:38.831Z,1150
2017-11-13T11:52:51.225Z,1150
2017-11-13T11:53:04.725Z,1140
2017-11-13T11:53:17.672Z,1150
2017-11-13T11:53:31.109Z,1125
2017-11-13T11:53:44.537Z,1110
2017-11-13T11:53:57.467Z,1115
2017-11-13T11:54:11.002Z,1115
2017-11-13T11:54:24.467Z,1115
2017-11-13T11:54:37.973Z,1110
2017-11-13T11:54:51.392Z,1130
2017-11-13T11:55:04.342Z,1135
2017-11-13T11:55:17.789Z,1135
2017-11-13T11:55:30.147Z,1145
2017-11-13T11:55:43.570Z,1140
2017-11-13T11:55:56.490Z,1135
2017-11-13T11:56:08.919Z,1125
2017-11-13T11:56:22.437Z,1125
2017-11-13T11:56:35.881Z,1130
2017-11-13T11:56:49.361Z,1125
2017-11-13T11:57:02.290Z,1115
2017-11-13T11:57:15.255Z,1110
2017-11-13T11:57:28.191Z,1110
2017-11-13T11:57:41.140Z,1100
2017-11-13T11:57:54.050Z,1100
2017-11-13T11:58:06.949Z,1105
2017-11-13T11:58:19.903Z,1100
2017-11-13T11:58:32.785Z,1095
2017-11-13T11:58:46.721Z,1085
2017-11-13T11:59:00.163Z,1080
2017-11-13T11:59:12.509Z,1080
2017-11-13T11:59:25.976Z,1075
2017-11-13T11:59:39.465Z,1070
2017-11-13T11:59:52.879Z,1075
2017-11-13T12:00:05.762Z,1065
2017-11-13T12:00:18.674Z,1065
2017-11-13T12:00:31.615Z,1070
2017-11-13T12:00:45.043Z,1075
2017-11-13T12:00:58.500Z,1080
2017-11-13T12:01:12.005Z,1090
2017-11-13T12:01:24.975Z,1085
2017-11-13T12:01:38.434Z,1080
2017-11-13T12:01:50.807Z,1100
2017-11-13T12:02:03.749Z,1095
2017-11-13T12:02:16.616Z,1100
2017-11-13T12:02:30.086Z,1095
2017-11-13T12:02:43.595Z,1095
2017-11-13T12:02:57.064Z,1095
2017-11-13T12:03:10.033Z,1095
2017-11-13T12:03:23.484Z,1095
2017-11-13T12:03:36.944Z,1095
2017-11-13T12:03:49.842Z,1080
2017-11-13T12:04:03.317Z,1050
2017-11-13T12:04:16.232Z,1040
2017-11-13T12:04:29.701Z,1030
2017-11-13T12:04:43.229Z,1020
2017-11-13T12:04:56.131Z,1010
2017-11-13T12:05:09.626Z,1010
2017-11-13T12:05:22.535Z,1010
2017-11-13T12:05:36.031Z,1000
2017-11-13T12:05:49.426Z,1000
2017-11-13T12:06:04.050Z,990
2017-11-13T12:06:16.413Z,995
2017-11-13T12:06:29.902Z,1000
2017-11-13T12:06:43.341Z,1005
2017-11-13T12:06:56.298Z,1005
2017-11-13T12:07:09.228Z,1010
2017-11-13T12:07:22.680Z,1020
2017-11-13T12:07:35.610Z,1020
2017-11-13T12:07:48.559Z,1020
2017-11-13T12:08:00.908Z,1025
2017-11-13T12:08:14.371Z,1035
2017-11-13T12:08:27.315Z,1035
2017-11-13T12:08:40.241Z,1055
2017-11-13T12:08:53.158Z,1060
2017-11-13T12:09:06.633Z,1065
2017-11-13T12:09:20.079Z,1075
2017-11-13T12:09:33.514Z,1085
2017-11-13T12:09:46.521Z,1085
2017-11-13T12:09:59.445Z,1090
2017-11-13T12:10:12.412Z,1100
2017-11-13T12:10:25.331Z,1100
2017-11-13T12:10:38.871Z,1100
2017-11-13T12:10:52.362Z,1095
2017-11-13T12:11:06.010Z,1085
2017-11-13T12:11:19.454Z,1085
2017-11-13T12:11:33.104Z,1085
2017-11-13T12:11:46.832Z,1080
2017-11-13T12:12:00.328Z,1080
2017-11-13T12:12:13.296Z,1060
2017-11-13T12:12:26.816Z,1045
2017-11-13T12:12:40.577Z,1035
2017-11-13T12:12:54.090Z,1040
2017-11-13T12:13:07.080Z,1045
2017-11-13T12:13:20.536Z,1050
2017-11-13T12:13:33.446Z,1030
2017-11-13T12:13:46.445Z,1015
2017-11-13T12:13:59.983Z,1010
2017-11-13T12:14:12.968Z,1015
2017-11-13T12:14:26.396Z,1025
2017-11-13T12:14:39.310Z,1025
2017-11-13T12:14:52.809Z,1030
2017-11-13T12:15:05.753Z,1025
2017-11-13T12:15:19.257Z,1030
2017-11-13T12:15:32.802Z,1035
2017-11-13T12:15:46.265Z,1035
2017-11-13T12:15:58.603Z,1020
2017-11-13T12:16:12.048Z,1035
2017-11-13T12:16:25.499Z,1025
2017-11-13T12:16:38.420Z,1015
2017-11-13T12:16:51.931Z,1010
2017-11-13T12:17:05.376Z,1015
2017-11-13T12:17:18.270Z,1020
2017-11-13T12:17:31.237Z,1025
2017-11-13T12:17:44.190Z,1005
2017-11-13T12:17:57.708Z,995
2017-11-13T12:18:11.235Z,985
2017-11-13T12:18:24.765Z,980
2017-11-13T12:18:38.227Z,970
2017-11-13T12:18:51.889Z,965
2017-11-13T12:19:05.360Z,970
2017-11-13T12:19:18.867Z,960
2017-11-13T12:19:32.355Z,950
2017-11-13T12:19:44.727Z,960
2017-11-13T12:19:58.159Z,950
2017-11-13T12:20:11.584Z,945
2017-11-13T12:20:25.042Z,940
2017-11-13T12:20:38.573Z,940
2017-11-13T12:20:51.997Z,940
2017-11-13T12:21:05.414Z,940
2017-11-13T12:21:18.392Z,935
2017-11-13T12:21:30.814Z,935
2017-11-13T12:21:44.276Z,940
2017-11-13T12:21:57.740Z,935
2017-11-13T12:22:11.242Z,940
2017-11-13T12:22:23.678Z,945
2017-11-13T12:22:36.056Z,940
2017-11-13T12:22:49.504Z,935
2017-11-13T12:23:01.846Z,935
2017-11-13T12:23:15.299Z,940
2017-11-13T12:23:28.240Z,940
2017-11-13T12:23:41.694Z,945
2017-11-13T12:23:55.156Z,940
2017-11-13T12:24:08.646Z,940
2017-11-13T12:24:22.057Z,930
2017-11-13T12:24:34.439Z,930
2017-11-13T12:24:47.318Z,930
2017-11-13T12:25:00.783Z,930
2017-11-13T12:25:13.718Z,930
2017-11-13T12:25:27.185Z,925
2017-11-13T12:25:40.636Z,925
2017-11-13T12:25:54.070Z,940
2017-11-13T12:26:06.978Z,935
2017-11-13T12:26:20.413Z,935
2017-11-13T12:26:33.375Z,940
2017-11-13T12:26:46.863Z,935
2017-11-13T12:26:59.229Z,935
2017-11-13T12:27:12.727Z,935
2017-11-13T12:27:26.199Z,935
2017-11-13T12:27:39.696Z,935
2017-11-13T12:27:53.272Z,935
2017-11-13T12:28:06.721Z,935
2017-11-13T12:28:20.154Z,925
2017-11-13T12:28:33.059Z,915
2017-11-13T12:28:46.469Z,910
2017-11-13T12:29:00.634Z,890
2017-11-13T12:29:14.096Z,875
2017-11-13T12:29:26.938Z,870
2017-11-13T12:29:40.404Z,865
2017-11-13T12:29:53.842Z,860
2017-11-13T12:30:06.234Z,855
2017-11-13T12:30:19.133Z,845
2017-11-13T12:30:31.538Z,850
2017-11-13T12:30:45.052Z,835
2017-11-13T12:30:58.039Z,850
2017-11-13T12:31:11.470Z,850
2017-11-13T12:31:24.950Z,845
2017-11-13T12:31:37.908Z,855
2017-11-13T12:31:50.828Z,860
2017-11-13T12:32:03.705Z,860
2017-11-13T12:32:17.176Z,860
2017-11-13T12:32:29.553Z,865
2017-11-13T12:32:43.048Z,870
2017-11-13T12:32:55.987Z,875
2017-11-13T12:33:08.913Z,855
2017-11-13T12:33:21.856Z,840
2017-11-13T12:33:35.359Z,825
2017-11-13T12:33:48.834Z,815
2017-11-13T12:34:02.327Z,810
2017-11-13T12:34:15.241Z,805
2017-11-13T12:34:28.689Z,800
2017-11-13T12:34:41.648Z,800
2017-11-13T12:34:55.163Z,800
2017-11-13T12:35:08.650Z,805
2017-11-13T12:35:21.626Z,810
2017-11-13T12:35:33.975Z,805
2017-11-13T12:35:47.480Z,805
2017-11-13T12:36:00.936Z,810
2017-11-13T12:36:13.861Z,810
2017-11-13T12:36:26.772Z,810
2017-11-13T12:36:40.217Z,815
2017-11-13T12:36:53.696Z,820
2017-11-13T12:37:06.605Z,820
2017-11-13T12:37:20.092Z,820
2017-11-13T12:37:33.551Z,820
2017-11-13T12:37:46.481Z,820
2017-11-13T12:37:59.903Z,820
2017-11-13T12:38:13.356Z,820
2017-11-13T12:38:26.274Z,815
2017-11-13T12:38:39.817Z,815
2017-11-13T12:38:53.290Z,815
2017-11-13T12:39:06.882Z,825
2017-11-13T12:39:20.419Z,815
2017-11-13T12:39:33.837Z,815
2017-11-13T12:39:47.328Z,810
2017-11-13T12:40:00.788Z,805
2017-11-13T12:40:14.324Z,805
2017-11-13T12:40:27.237Z,795
2017-11-13T12:40:40.736Z,800